Dorothy Ann — WDE8761 — position and weather

sailwx.info

Track history (hours):
 
Tides and Currents Weather Stations Pressure Air Temp Water Temp Dewpoint Dewpoint Depression Visibility Wind Speed Wind Dir Waves Ship Positions

Dorothy Ann

Owner: THE INTERLAKE STEAMSHIP COMPANY, Middleburg Heights, OH. More information available from US FCC via Universal Licensing System and Coast Guard Vessel Documentation Center.

Last reported at 2015-Feb-27 11:00 UTC. Time now 2015-Feb-27 11:44 UTC.
Position N 42°06' W 080°06'.

Length 215 m; draft 5.1 m.

Type: Cargo ship. MMSI: 367409260.

Wind from 280 at 7 knots

Barometer 1032.3 mb
Water temperature 39.9 ° C

Date/timePositionNaut miles runAvg speedWind from/ knotsBaromVisibWave heightAir tempDewpointWater temp
2015-Feb-27 11:00N 42°06' W 080°06'0 0.0 280 / 71032.3 39.9
2015-Feb-27 09:00N 42°06' W 080°06'0 0.0 350 / 51030.0 40.5
2015-Feb-27 08:00N 42°06' W 080°06'0 0.0 190 / 61029.3 40.9
2015-Feb-27 06:00N 42°06' W 080°06'0 0.0 300 / 61028.3 41.3
2015-Feb-27 05:00N 42°06' W 080°06'0 0.0 290 / 61027.9 41.3
2015-Feb-27 04:00N 42°06' W 080°06'0 0.0 290 / 41027.3 41.4
2015-Feb-27 03:00N 42°06' W 080°06'0 0.0 310 / 31026.9 41.3
2015-Feb-27 02:00N 42°06' W 080°06'0 0.0 320 / 51025.9 41.0
2015-Feb-27 01:00N 42°06' W 080°06'0 0.0 320 / 71025.6 40.6
2015-Feb-27 00:00N 42°06' W 080°06'0 0.0 350 / 51024.2 40.8
2015-Feb-26 23:00N 42°06' W 080°06'0 0.0 340 / 71023.2 40.3
2015-Feb-26 22:00N 42°06' W 080°06'0 0.0 350 / 101022.5 39.6
2015-Feb-26 21:00N 42°06' W 080°06'0 0.0 010 / 101021.8 39.9
2015-Feb-26 20:00N 42°06' W 080°06'0 0.0 350 / 131021.5 39.9
2015-Feb-26 19:00N 42°06' W 080°06'   030 / 81020.8 39.5
Track history (hours):
 
Tides and Currents Weather Stations Pressure Air Temp Water Temp Dewpoint Dewpoint Depression Visibility Wind Speed Wind Dir Waves Ship Positions

Dorothy Ann

Owner: THE INTERLAKE STEAMSHIP COMPANY, Middleburg Heights, OH. More information available from US FCC via Universal Licensing System and Coast Guard Vessel Documentation Center.

Last reported at 2015-Feb-27 11:00 UTC. Time now 2015-Feb-27 11:44 UTC.
Position N 42°06' W 080°06'.

Length 215 m; draft 5.1 m.

Type: Cargo ship. MMSI: 367409260.

Wind from 280 at 7 knots

Barometer 1032.3 mb
Water temperature 39.9 ° C

Date/timePositionNaut miles runAvg speedWind from/ knotsBaromVisibWave heightAir tempDewpointWater temp
2015-Feb-27 11:00N 42°06' W 080°06'0 0.0 280 / 71032.3 39.9
2015-Feb-27 09:00N 42°06' W 080°06'0 0.0 350 / 51030.0 40.5
2015-Feb-27 08:00N 42°06' W 080°06'0 0.0 190 / 61029.3 40.9
2015-Feb-27 06:00N 42°06' W 080°06'0 0.0 300 / 61028.3 41.3
2015-Feb-27 05:00N 42°06' W 080°06'0 0.0 290 / 61027.9 41.3
2015-Feb-27 04:00N 42°06' W 080°06'0 0.0 290 / 41027.3 41.4
2015-Feb-27 03:00N 42°06' W 080°06'0 0.0 310 / 31026.9 41.3
2015-Feb-27 02:00N 42°06' W 080°06'0 0.0 320 / 51025.9 41.0
2015-Feb-27 01:00N 42°06' W 080°06'0 0.0 320 / 71025.6 40.6
2015-Feb-27 00:00N 42°06' W 080°06'0 0.0 350 / 51024.2 40.8
2015-Feb-26 23:00N 42°06' W 080°06'0 0.0 340 / 71023.2 40.3
2015-Feb-26 22:00N 42°06' W 080°06'0 0.0 350 / 101022.5 39.6
2015-Feb-26 21:00N 42°06' W 080°06'0 0.0 010 / 101021.8 39.9
2015-Feb-26 20:00N 42°06' W 080°06'0 0.0 350 / 131021.5 39.9
2015-Feb-26 19:00N 42°06' W 080°06'   030 / 81020.8 39.5

Dump ship's entire track history